AL29 weather

New Horizon Airport
Blountsville, Alabama, United States

Public forecast

Using degrees Fahrenheit for public forecast. Weather courtesy of forecast.io.

Closest aviation weather report (METAR) to New Horizon Airport

Closest report is Cullman Regional Airport-Folsom Field, 13.9 nm (25.8 km) NW. Retrieved 2019/10/23 15:35 UTC (0 seconds ago):

KCMD 231535Z AUTO 08004KT 10SM CLR 16/M01 A3023 RMK AO2 T01591007

Closest aviation forecast (TAF) to New Horizon Airport

Closest forecast is Huntsville International Carl T Jones Field, 31.3 nm (58.0 km) NNW. Retrieved 2019/10/23 12:45 UTC (3 hours ago):

TAF KHSV 231142Z 2312/2412 VRB05KT P6SM SKC FM240600 12005KT P6SM FEW250